Terminal Aerodrome Forecast
Issued by NWS Milwaukee/Sullivan, WI

Home | Current Version | Previous Version | Text Only | Print | Product List | Glossary On
Versions: 1 2 3 4 5 6 7 8 9 10 11 12 13 14 15 16 17 18 19 20 21 22 23 24 25 26 27
000
FTUS43 KMKX 231212 AAA
TAFMSN
TAF AMD
KMSN 231212Z 2312/2412 00000KT 5SM BR SCT008 BKN250
     FM231600 21005KT P6SM BKN150
     FM240000 31007KT P6SM VCSH OVC050
     FM240300 31011G24KT P6SM -RA SCT025 OVC045
     FM240500 31012G25KT 5SM -RA BR SCT020 OVC030
     FM240700 31013G26KT 4SM RA BR OVC015=

USA.gov is the U.S. government's official web portal to all federal, state and local government web resources and services.